Time;durP1;ratioP1;P1;durP2;ratioP2;P2;SDS_P1;SDS_P2;PMS_P1;PMS_P2;Temp;Humidity;BMP_temperature;BMP_pressure;BME280_temperature;BME280_humidity;BME280_pressure;Samples;Min_cycle;Max_cycle;Signal;HPM_P1;HPM_P2
2022/04/25 00:00:25;;;;;;;2.58;1.67;;;13.60;74.60;;;;;;10947754;32;20042;-72
2022/04/25 00:06:27;;;;;;;3.35;1.98;;;13.50;74.60;;;;;;10947449;32;20010;-72
2022/04/25 00:12:29;;;;;;;6.65;3.60;;;13.50;74.80;;;;;;10947241;32;20026;-72
2022/04/25 00:18:32;;;;;;;4.62;3.03;;;13.50;74.80;;;;;;10947038;32;20023;-71
2022/04/25 00:24:34;;;;;;;6.05;4.40;;;13.50;75.00;;;;;;10946706;32;20049;-71
2022/04/25 00:31:10;;;;;;;4.90;3.15;;;13.50;75.40;;;;;;10946623;32;20022;-69
2022/04/25 00:37:12;;;;;;;4.40;3.00;;;13.50;75.80;;;;;;10946296;32;20053;-69
2022/04/25 00:43:14;;;;;;;4.93;3.55;;;13.40;75.50;;;;;;10945089;32;20049;-69
2022/04/25 00:49:16;;;;;;;2.95;2.40;;;13.30;75.50;;;;;;10931411;32;20023;-69
2022/04/25 00:55:18;;;;;;;4.22;2.58;;;13.40;75.50;;;;;;10945781;32;20191;-69
2022/04/25 01:01:21;;;;;;;3.90;2.83;;;13.30;75.40;;;;;;10945520;32;20374;-68
2022/04/25 01:07:23;;;;;;;3.33;2.83;;;13.20;75.50;;;;;;10945379;32;20034;-69
2022/04/25 01:13:25;;;;;;;4.25;3.10;;;13.20;75.60;;;;;;10936628;27;20035;-68
2022/04/25 01:19:28;;;;;;;3.67;2.58;;;13.30;75.70;;;;;;10944072;32;20030;-69
2022/04/25 01:31:51;;;;;;;4.93;3.05;;;13.20;75.60;;;;;;10944373;32;20320;-69
2022/04/25 01:37:53;;;;;;;4.05;2.37;;;13.20;75.60;;;;;;10944014;32;20058;-69
2022/04/25 01:43:55;;;;;;;4.05;3.05;;;13.10;75.60;;;;;;10944070;32;20049;-68
2022/04/25 01:49:58;;;;;;;3.17;2.50;;;13.00;75.70;;;;;;10943896;32;20068;-69
2022/04/25 01:56:00;;;;;;;4.95;2.90;;;12.90;75.80;;;;;;10943156;32;20027;-69
2022/04/25 02:02:03;;;;;;;4.97;3.83;;;12.80;75.90;;;;;;10943346;32;20031;-69
2022/04/25 02:08:06;;;;;;;5.03;4.25;;;12.80;76.10;;;;;;10943134;32;20335;-68
2022/04/25 02:14:08;;;;;;;28.02;6.50;;;12.80;76.60;;;;;;10942868;32;20062;-69
2022/04/25 02:20:11;;;;;;;9.15;3.10;;;12.90;76.80;;;;;;10942833;32;20026;-69
2022/04/25 02:26:13;;;;;;;6.03;3.42;;;13.00;76.40;;;;;;10942601;32;20351;-69
2022/04/25 02:32:16;;;;;;;5.93;4.37;;;13.00;76.50;;;;;;10928942;32;20094;-69
2022/04/25 02:38:19;;;;;;;5.12;3.78;;;13.00;76.40;;;;;;10942064;32;20070;-69
2022/04/25 02:44:22;;;;;;;6.65;4.62;;;12.90;76.40;;;;;;10942014;32;20057;-69
2022/04/25 02:50:24;;;;;;;7.50;5.30;;;13.00;76.40;;;;;;10941712;32;20030;-69
2022/04/25 02:56:27;;;;;;;6.12;4.18;;;13.00;76.60;;;;;;10941719;32;20335;-69
2022/04/25 03:02:29;;;;;;;4.82;3.92;;;13.00;76.60;;;;;;10937396;32;20070;-69
2022/04/25 03:08:31;;;;;;;4.85;3.47;;;13.00;76.40;;;;;;10945956;32;20023;-69
2022/04/25 03:14:34;;;;;;;5.47;3.72;;;12.80;76.40;;;;;;10949093;32;20035;-68
2022/04/25 03:20:39;;;;;;;4.75;2.97;;;12.80;76.50;;;;;;10948849;32;20015;-69
2022/04/25 03:26:41;;;;;;;3.17;2.28;;;12.80;76.90;;;;;;10948796;32;20022;-68
2022/04/25 03:33:12;;;;;;;2.55;1.92;;;12.70;76.80;;;;;;10947644;32;20024;-69
2022/04/25 03:39:26;;;;;;;4.20;2.53;;;12.50;76.90;;;;;;10948339;32;20031;-71
2022/04/25 03:45:29;;;;;;;4.97;2.42;;;12.50;76.90;;;;;;10948211;32;20050;-71
2022/04/25 03:51:31;;;;;;;5.85;4.20;;;12.50;76.90;;;;;;10947926;32;20026;-71
2022/04/25 03:57:33;;;;;;;7.55;5.95;;;12.60;76.80;;;;;;10934310;32;20026;-71
2022/04/25 04:03:36;;;;;;;7.82;5.05;;;12.70;77.00;;;;;;10947678;32;20050;-71
2022/04/25 04:09:50;;;;;;;9.50;6.87;;;12.60;77.30;;;;;;10946241;32;20019;-71
2022/04/25 04:15:53;;;;;;;13.75;5.78;;;12.60;77.20;;;;;;10946846;32;20022;-71
2022/04/25 04:22:02;;;;;;;7.25;4.43;;;12.50;77.40;;;;;;10947002;32;20430;-71
2022/04/25 04:28:06;;;;;;;9.15;6.20;;;12.50;77.80;;;;;;10946663;32;20035;-71
2022/04/25 04:34:10;;;;;;;8.93;6.72;;;12.40;78.20;;;;;;10946362;32;20085;-71
2022/04/25 04:40:30;;;;;;;5.85;4.70;;;12.30;78.50;;;;;;10942835;32;20076;-72
2022/04/25 04:47:03;;;;;;;7.60;5.68;;;12.20;78.10;;;;;;10946083;32;20569;-71
2022/04/25 04:53:08;;;;;;;4.40;2.90;;;12.10;78.20;;;;;;10945889;32;20039;-71
2022/04/25 04:59:11;;;;;;;3.40;2.10;;;12.20;78.00;;;;;;10945715;32;20023;-71
2022/04/25 05:05:13;;;;;;;6.70;3.95;;;12.20;78.00;;;;;;10945591;32;20049;-71
2022/04/25 05:11:15;;;;;;;7.07;4.72;;;12.20;77.90;;;;;;10945404;32;20395;-71
2022/04/25 05:17:17;;;;;;;6.20;4.25;;;12.30;77.80;;;;;;10945070;32;20027;-71
2022/04/25 05:23:19;;;;;;;4.85;2.60;;;12.50;77.80;;;;;;10944525;32;20326;-71
2022/04/25 05:29:22;;;;;;;4.78;3.22;;;12.50;77.70;;;;;;10944065;32;20027;-71
2022/04/25 05:35:26;;;;;;;7.45;3.53;;;12.50;77.70;;;;;;10944291;32;20395;-71
2022/04/25 05:55:19;;;;;;;5.45;3.75;;;12.80;77.30;;;;;;10828082;32;20090;-72
2022/04/25 06:01:21;;;;;;;10.65;5.28;;;12.80;77.30;;;;;;10827658;32;20050;-72
2022/04/25 06:07:24;;;;;;;7.65;5.15;;;12.90;77.40;;;;;;10822788;33;20054;-72
2022/04/25 06:13:26;;;;;;;8.30;5.57;;;13.00;77.50;;;;;;10826773;32;20044;-72
2022/04/25 06:19:29;;;;;;;8.63;4.18;;;13.00;77.40;;;;;;10825735;32;20423;-72
2022/04/25 06:25:33;;;;;;;9.82;5.87;;;13.10;77.20;;;;;;10826398;32;20024;-72
2022/04/25 06:31:39;;;;;;;8.38;5.03;;;13.10;77.30;;;;;;10824426;32;20361;-72
2022/04/25 06:37:44;;;;;;;6.97;3.72;;;13.20;77.60;;;;;;10826057;32;20367;-72
2022/04/25 06:43:46;;;;;;;9.82;6.32;;;13.30;77.80;;;;;;10826156;32;20416;-72
2022/04/25 06:49:49;;;;;;;8.63;6.18;;;13.40;78.10;;;;;;10826162;32;20031;-72
2022/04/25 06:55:54;;;;;;;14.15;5.32;;;13.30;78.30;;;;;;10813824;32;20051;-72
2022/04/25 07:01:59;;;;;;;7.40;4.72;;;13.40;78.40;;;;;;10823921;32;20344;-72
2022/04/25 07:08:11;;;;;;;8.43;5.10;;;13.50;78.50;;;;;;10825658;33;20066;-72
2022/04/25 07:14:18;;;;;;;9.55;5.87;;;13.60;78.40;;;;;;10810961;33;20028;-72
2022/04/25 07:20:20;;;;;;;6.40;4.20;;;13.80;78.40;;;;;;10825657;33;20058;-72
2022/04/25 07:32:43;;;;;;;6.37;4.22;;;14.00;77.80;;;;;;10825101;33;20058;-73
2022/04/25 07:38:46;;;;;;;10.57;6.07;;;14.20;77.70;;;;;;10825076;33;20043;-72
2022/04/25 07:44:48;;;;;;;10.73;8.68;;;14.20;77.50;;;;;;10822975;32;20044;-73
2022/04/25 07:50:51;;;;;;;10.80;8.30;;;14.20;78.00;;;;;;10827044;32;20051;-72
2022/04/25 07:56:55;;;;;;;11.65;9.82;;;14.20;78.30;;;;;;10828373;32;20047;-73
2022/04/25 08:02:57;;;;;;;8.88;5.05;;;14.30;78.30;;;;;;10828814;32;20031;-72
2022/04/25 08:09:02;;;;;;;12.98;11.25;;;14.40;78.30;;;;;;10831476;32;20467;-73
2022/04/25 08:21:25;;;;;;;14.80;6.35;;;15.00;77.50;;;;;;10826411;33;20066;-72
2022/04/25 08:27:27;;;;;;;9.80;6.68;;;15.30;77.10;;;;;;10827603;32;20031;-73
2022/04/25 08:33:30;;;;;;;14.55;10.50;;;15.50;76.40;;;;;;10830078;32;20059;-73
2022/04/25 08:39:34;;;;;;;9.98;7.32;;;15.70;75.80;;;;;;10825085;33;20032;-73
2022/04/25 08:45:38;;;;;;;11.77;10.57;;;15.90;75.40;;;;;;10829642;32;20400;-73
2022/04/25 08:51:42;;;;;;;9.05;7.72;;;16.00;75.10;;;;;;10830083;32;20023;-72
2022/04/25 08:57:46;;;;;;;11.60;6.93;;;16.00;74.80;;;;;;10829305;32;20066;-73
2022/04/25 09:03:48;;;;;;;6.80;5.18;;;15.90;75.00;;;;;;10856876;32;20034;-72
2022/04/25 09:09:50;;;;;;;7.35;5.93;;;15.80;75.20;;;;;;10943607;32;20061;-73
2022/04/25 09:15:52;;;;;;;6.80;5.40;;;16.10;74.90;;;;;;10959621;27;267769;-73
2022/04/25 09:21:54;;;;;;;9.90;5.18;;;16.10;74.40;;;;;;10983472;32;20049;-72
2022/04/25 09:28:26;;;;;;;10.82;7.75;;;16.10;74.40;;;;;;10978895;32;20018;-73
2022/04/25 09:40:52;;;;;;;9.10;5.47;;;16.10;74.30;;;;;;10826950;32;20054;-72
2022/04/25 09:46:54;;;;;;;7.05;5.12;;;16.30;73.90;;;;;;10828041;32;20012;-73
2022/04/25 09:52:58;;;;;;;10.15;5.37;;;16.30;73.40;;;;;;10828255;32;20020;-72
2022/04/25 09:59:09;;;;;;;6.95;5.80;;;16.40;73.60;;;;;;10827859;32;20325;-72
2022/04/25 10:05:13;;;;;;;7.47;5.03;;;16.30;73.00;;;;;;10825311;32;20028;-72
2022/04/25 10:11:18;;;;;;;5.87;4.85;;;16.30;73.00;;;;;;10961463;32;20026;-72
2022/04/25 10:17:24;;;;;;;9.32;6.78;;;16.70;72.70;;;;;;10967164;32;20034;-71
2022/04/25 10:23:27;;;;;;;9.82;5.97;;;17.30;71.50;;;;;;10980582;32;20387;-72
2022/04/25 10:29:34;;;;;;;8.35;6.43;;;17.50;70.70;;;;;;10978458;32;20030;-72
2022/04/25 10:35:36;;;;;;;5.40;3.83;;;18.00;69.80;;;;;;10976714;32;20342;-72
2022/04/25 10:48:08;;;;;;;10.05;8.38;;;18.80;68.10;;;;;;10977707;32;20044;-71
2022/04/25 10:54:12;;;;;;;7.75;5.90;;;19.00;67.50;;;;;;10979556;32;20031;-72
2022/04/25 11:06:39;;;;;;;8.05;6.72;;;18.30;67.50;;;;;;10826917;32;20055;-71
2022/04/25 11:12:57;;;;;;;5.57;4.18;;;18.10;68.10;;;;;;10813523;33;20020;-71
2022/04/25 11:19:08;;;;;;;8.70;6.63;;;17.80;68.40;;;;;;10821769;33;20063;-72
2022/04/25 11:25:25;;;;;;;9.90;8.63;;;18.40;67.80;;;;;;10827881;32;20051;-69
2022/04/25 11:31:32;;;;;;;5.97;4.72;;;19.20;66.20;;;;;;10832426;32;20028;-69
2022/04/25 11:37:35;;;;;;;7.10;5.25;;;19.60;64.60;;;;;;10833012;32;20075;-70
2022/04/25 11:43:37;;;;;;;7.97;5.22;;;19.80;64.60;;;;;;10953618;32;20027;-69
2022/04/25 11:49:39;;;;;;;6.78;5.60;;;20.30;63.20;;;;;;10985925;32;20044;-71
2022/04/25 11:55:41;;;;;;;6.50;4.62;;;20.20;62.10;;;;;;10981581;32;20398;-71
2022/04/25 12:01:48;;;;;;;6.43;4.78;;;19.70;63.40;;;;;;10984709;32;20041;-71
2022/04/25 12:20:33;;;;;;;11.43;6.93;;;18.80;65.00;;;;;;10984487;32;20090;-72
2022/04/25 12:26:35;;;;;;;5.85;4.45;;;18.60;65.60;;;;;;10974266;32;20046;-71
2022/04/25 12:32:38;;;;;;;5.05;3.85;;;18.30;65.60;;;;;;10945828;32;20035;-71
2022/04/25 12:38:43;;;;;;;5.97;3.92;;;18.30;65.90;;;;;;10943555;32;20054;-71
2022/04/25 12:44:57;;;;;;;6.97;4.10;;;18.40;65.70;;;;;;10944273;32;20057;-71
2022/04/25 12:50:59;;;;;;;15.80;13.02;;;18.60;65.30;;;;;;10945101;32;20035;-71
2022/04/25 12:57:17;;;;;;;14.23;12.48;;;18.80;65.10;;;;;;10946010;32;20034;-72
2022/04/25 13:03:19;;;;;;;17.87;16.05;;;18.70;65.40;;;;;;10945282;32;20018;-71
2022/04/25 13:09:21;;;;;;;25.58;22.48;;;18.80;65.70;;;;;;10944620;32;20027;-71
2022/04/25 13:15:31;;;;;;;18.17;15.70;;;18.80;65.80;;;;;;10942923;32;20293;-71
2022/04/25 13:21:37;;;;;;;16.08;13.88;;;18.80;66.10;;;;;;10944225;32;20027;-71
2022/04/25 13:27:39;;;;;;;12.25;8.48;;;19.00;66.00;;;;;;10929865;32;20046;-71
2022/04/25 13:33:41;;;;;;;16.35;14.65;;;19.10;66.40;;;;;;10944163;32;20031;-71
2022/04/25 13:39:43;;;;;;;14.95;13.40;;;19.10;66.10;;;;;;10943008;32;20488;-72
2022/04/25 13:45:45;;;;;;;8.85;7.05;;;18.90;66.30;;;;;;10942737;32;20056;-71
2022/04/25 13:52:11;;;;;;;12.20;8.50;;;18.80;66.60;;;;;;10942340;32;20023;-71
2022/04/25 13:58:16;;;;;;;12.97;10.70;;;18.80;66.60;;;;;;10941447;32;20388;-71
2022/04/25 14:04:18;;;;;;;16.95;15.15;;;18.70;66.20;;;;;;10941008;32;20125;-71
2022/04/25 14:10:20;;;;;;;10.35;7.28;;;18.70;66.30;;;;;;10941335;32;20062;-71
2022/04/25 14:16:23;;;;;;;12.77;10.15;;;18.70;65.80;;;;;;10940168;32;20031;-71
2022/04/25 14:22:26;;;;;;;9.68;6.80;;;18.70;65.70;;;;;;10942177;32;20044;-71
2022/04/25 14:28:29;;;;;;;11.85;10.50;;;18.70;66.60;;;;;;10969025;32;20054;-71
2022/04/25 14:34:34;;;;;;;11.27;8.70;;;18.70;66.90;;;;;;10968333;32;20039;-70
2022/04/25 14:40:36;;;;;;;9.70;7.32;;;18.70;67.10;;;;;;10941624;32;20061;-71
2022/04/25 14:46:41;;;;;;;6.82;4.95;;;18.60;67.20;;;;;;10938669;32;20065;-69
2022/04/25 14:59:08;;;;;;;5.90;3.97;;;18.40;67.50;;;;;;10946770;32;20295;-69
2022/04/25 15:05:11;;;;;;;5.28;3.12;;;18.30;67.70;;;;;;10940255;32;20066;-69
2022/04/25 15:11:13;;;;;;;6.95;4.07;;;18.40;67.50;;;;;;10936706;32;20065;-69
2022/04/25 15:17:16;;;;;;;4.00;2.62;;;18.40;67.60;;;;;;10939958;32;20035;-69
2022/04/25 15:23:19;;;;;;;5.50;2.22;;;18.30;67.80;;;;;;10935283;32;20458;-69
2022/04/25 15:29:23;;;;;;;5.97;2.50;;;18.30;67.90;;;;;;10939963;32;20027;-70
2022/04/25 15:35:29;;;;;;;5.47;2.20;;;18.30;67.50;;;;;;10940024;32;20030;-69
2022/04/25 15:41:31;;;;;;;5.22;2.40;;;18.30;66.80;;;;;;10940088;32;20065;-69
2022/04/25 15:47:33;;;;;;;5.65;2.30;;;18.20;66.70;;;;;;10939284;32;20031;-69
2022/04/25 15:59:56;;;;;;;6.95;1.67;;;18.40;65.70;;;;;;10939476;32;20031;-69
2022/04/25 16:05:59;;;;;;;3.00;1.95;;;18.40;65.20;;;;;;10939402;32;20073;-70
2022/04/25 16:12:24;;;;;;;3.45;0.98;;;18.40;65.30;;;;;;10939512;32;20023;-69
2022/04/25 16:18:26;;;;;;;4.47;1.92;;;18.30;65.30;;;;;;10945326;32;20034;-69
2022/04/25 16:24:52;;;;;;;5.20;1.35;;;18.40;65.10;;;;;;10946515;32;20470;-69
2022/04/25 16:31:02;;;;;;;2.40;1.37;;;18.40;64.50;;;;;;10974586;32;20031;-69
2022/04/25 16:37:06;;;;;;;3.62;1.85;;;18.30;64.60;;;;;;10931200;32;20035;-69
2022/04/25 16:43:09;;;;;;;3.53;2.10;;;18.30;64.70;;;;;;10941856;32;20038;-69
2022/04/25 16:49:18;;;;;;;11.65;3.55;;;18.40;65.10;;;;;;10943970;32;20031;-69
2022/04/25 16:55:20;;;;;;;3.30;1.77;;;19.00;63.80;;;;;;10945216;32;20039;-71
2022/04/25 17:01:22;;;;;;;4.40;1.90;;;19.80;63.20;;;;;;10941251;32;20035;-69
2022/04/25 17:07:25;;;;;;;1.85;1.00;;;19.80;63.10;;;;;;10944234;32;20046;-70
2022/04/25 17:13:27;;;;;;;7.68;1.98;;;19.30;64.00;;;;;;10953700;27;20034;-69
2022/04/25 17:19:29;;;;;;;3.58;2.17;;;18.90;64.80;;;;;;10982267;32;20011;-69
2022/04/25 17:25:31;;;;;;;4.78;2.60;;;18.60;65.30;;;;;;10981582;32;20142;-71
